Time;durP1;ratioP1;P1;durP2;ratioP2;P2;SDS_P1;SDS_P2;PMS_P1;PMS_P2;Temp;Humidity;BMP_temperature;BMP_pressure;BME280_temperature;BME280_humidity;BME280_pressure;Samples;Min_cycle;Max_cycle;Signal;HPM_P1;HPM_P2
2021/04/27 00:01:42;;;;;;;;;;;;;;;;;;4920066;29;19958;-57
2021/04/27 00:04:07;;;;;;;;;;;;;;;;;;4917622;29;20340;-55
2021/04/27 00:06:32;;;;;;;;;;;;;;;;;;4915509;29;19911;-57
2021/04/27 00:08:58;;;;;;;;;;;;;;;;;;4916575;29;19974;-56
2021/04/27 00:11:23;;;;;;;;;;;;;;;;;;4917279;29;20202;-63
2021/04/27 00:13:48;;;;;;;;;;;;;;;;;;4916761;29;19915;-55
2021/04/27 00:16:14;;;;;;;;;;;;;;;;;;4917082;29;19939;-57
2021/04/27 00:18:39;;;;;;;;;;;;;;;;;;4916939;29;19936;-58
2021/04/27 00:21:04;;;;;;;;;;;;;;;;;;4916411;29;19958;-56
2021/04/27 00:23:29;;;;;;;;;;;;;;;;;;4916718;29;19911;-56
2021/04/27 00:25:55;;;;;;;;;;;;;;;;;;4916692;29;19986;-55
2021/04/27 00:28:20;;;;;;;;;;;;;;;;;;4914944;29;19914;-56
2021/04/27 00:30:45;;;;;;;;;;;;;;;;;;4916425;29;19922;-56
2021/04/27 00:33:10;;;;;;;;;;;;;;;;;;4915154;29;19911;-55
2021/04/27 00:35:35;;;;;;;;;;;;;;;;;;4915277;29;19910;-56
2021/04/27 00:38:01;;;;;;;;;;;;;;;;;;4914994;29;19914;-55
2021/04/27 00:40:27;;;;;;;;;;;;;;;;;;4915145;29;20336;-56
2021/04/27 00:42:52;;;;;;;;;;;;;;;;;;4914927;29;19918;-56
2021/04/27 00:45:17;;;;;;;;;;;;;;;;;;4915234;29;20348;-54
2021/04/27 00:47:42;;;;;;;;;;;;;;;;;;4914015;29;20219;-55
2021/04/27 00:50:08;;;;;;;;;;;;;;;;;;4915018;29;19915;-56
2021/04/27 00:52:33;;;;;;;;;;;;;;;;;;4913917;29;19925;-55
2021/04/27 00:54:58;;;;;;;;;;;;;;;;;;4914560;29;19915;-56
2021/04/27 00:57:23;;;;;;;;;;;;;;;;;;4913857;29;19911;-57
2021/04/27 00:59:49;;;;;;;;;;;;;;;;;;4914920;29;19911;-55
2021/04/27 01:02:14;;;;;;;;;;;;;;;;;;4914835;29;19911;-57
2021/04/27 01:04:39;;;;;;;;;;;;;;;;;;4916040;29;20067;-55
2021/04/27 01:07:04;;;;;;;;;;;;;;;;;;4915912;29;20061;-56
2021/04/27 01:09:30;;;;;;;;;;;;;;;;;;4914750;29;19911;-56
2021/04/27 01:11:55;;;;;;;;;;;;;;;;;;4917640;29;19919;-56
2021/04/27 01:14:20;;;;;;;;;;;;;;;;;;4919150;29;19911;-55
2021/04/27 01:16:46;;;;;;;;;;;;;;;;;;4920279;29;19915;-55
2021/04/27 01:19:13;;;;;;;;;;;;;;;;;;4918593;29;20271;-55
2021/04/27 01:21:39;;;;;;;;;;;;;;;;;;4918826;29;20010;-54
2021/04/27 01:24:04;;;;;;;;;;;;;;;;;;4918296;29;19990;-54
2021/04/27 01:26:30;;;;;;;;;;;;;;;;;;4902957;29;19931;-55
2021/04/27 01:28:55;;;;;;;;;;;;;;;;;;4918481;29;20010;-56
2021/04/27 01:31:20;;;;;;;;;;;;;;;;;;4918861;29;19950;-56
2021/04/27 01:33:46;;;;;;;;;;;;;;;;;;4903027;29;19967;-56
2021/04/27 01:36:13;;;;;;;;;;;;;;;;;;4918046;29;19915;-55
2021/04/27 01:38:46;;;;;;;;;;;;;;;;;;4918760;29;19938;-56
2021/04/27 01:41:11;;;;;;;;;;;;;;;;;;4918252;29;19911;-55
2021/04/27 01:43:40;;;;;;;;;;;;;;;;;;4903241;29;19911;-55
2021/04/27 01:46:06;;;;;;;;;;;;;;;;;;4919510;29;20367;-55
2021/04/27 01:48:32;;;;;;;;;;;;;;;;;;4919845;29;19957;-55
2021/04/27 01:50:58;;;;;;;;;;;;;;;;;;4917776;29;19975;-55
2021/04/27 01:53:52;;;;;;;;;;;;;;;;;;4913944;29;19919;-55
2021/04/27 01:56:19;;;;;;;;;;;;;;;;;;4918097;29;19918;-56
2021/04/27 01:58:44;;;;;;;;;;;;;;;;;;4918543;29;19911;-57
2021/04/27 02:01:10;;;;;;;;;;;;;;;;;;4919242;29;19937;-56
2021/04/27 02:03:35;;;;;;;;;;;;;;;;;;4918259;29;20296;-56
2021/04/27 02:06:12;;;;;;;;;;;;;;;;;;4918086;29;19908;-56
2021/04/27 02:08:38;;;;;;;;;;;;;;;;;;4917827;29;19918;-58
2021/04/27 02:11:03;;;;;;;;;;;;;;;;;;4901955;29;19970;-54
2021/04/27 02:13:29;;;;;;;;;;;;;;;;;;4917636;29;20014;-55
2021/04/27 02:16:05;;;;;;;;;;;;;;;;;;4919134;29;19955;-54
2021/04/27 02:18:31;;;;;;;;;;;;;;;;;;4917822;29;19994;-57
2021/04/27 02:20:57;;;;;;;;;;;;;;;;;;4917721;29;19911;-54
2021/04/27 02:23:41;;;;;;;;;;;;;;;;;;4918676;29;19934;-55
2021/04/27 02:26:11;;;;;;;;;;;;;;;;;;4918625;29;19911;-55
2021/04/27 02:28:42;;;;;;;;;;;;;;;;;;4917913;29;19982;-55
2021/04/27 02:31:07;;;;;;;;;;;;;;;;;;4916964;29;20308;-54
2021/04/27 02:33:34;;;;;;;;;;;;;;;;;;4901869;29;19954;-55
2021/04/27 02:35:59;;;;;;;;;;;;;;;;;;4918500;29;19915;-55
2021/04/27 02:38:51;;;;;;;;;;;;;;;;;;4917409;29;19911;-56
2021/04/27 02:41:16;;;;;;;;;;;;;;;;;;4917225;29;19917;-55
2021/04/27 02:43:42;;;;;;;;;;;;;;;;;;4917612;29;19914;-55
2021/04/27 02:46:07;;;;;;;;;;;;;;;;;;4917523;29;20324;-55
2021/04/27 02:48:44;;;;;;;;;;;;;;;;;;4917086;29;19927;-55
2021/04/27 02:51:12;;;;;;;;;;;;;;;;;;4917025;29;19926;-54
2021/04/27 02:53:47;;;;;;;;;;;;;;;;;;4917289;29;20025;-55
2021/04/27 02:56:12;;;;;;;;;;;;;;;;;;4916968;29;20011;-55
2021/04/27 02:58:43;;;;;;;;;;;;;;;;;;4917430;29;19911;-55
2021/04/27 03:01:08;;;;;;;;;;;;;;;;;;4918494;29;20240;-55
2021/04/27 03:03:34;;;;;;;;;;;;;;;;;;4916819;29;19942;-56
2021/04/27 03:05:59;;;;;;;;;;;;;;;;;;4917061;29;19915;-54
2021/04/27 03:08:24;;;;;;;;;;;;;;;;;;4914173;29;20356;-56
2021/04/27 03:10:52;;;;;;;;;;;;;;;;;;4931076;29;19934;-56
2021/04/27 03:13:17;;;;;;;;;;;;;;;;;;4899387;29;20007;-56
2021/04/27 03:15:47;;;;;;;;;;;;;;;;;;4897983;29;20434;-57
2021/04/27 03:18:12;;;;;;;;;;;;;;;;;;4899052;29;19911;-55
2021/04/27 03:20:37;;;;;;;;;;;;;;;;;;4898081;29;19911;-54
2021/04/27 03:23:21;;;;;;;;;;;;;;;;;;4897362;29;20069;-57
2021/04/27 03:25:46;;;;;;;;;;;;;;;;;;4897705;29;20016;-55
2021/04/27 03:28:12;;;;;;;;;;;;;;;;;;4913195;29;19982;-56
2021/04/27 03:30:56;;;;;;;;;;;;;;;;;;4913491;29;20294;-54
2021/04/27 03:33:21;;;;;;;;;;;;;;;;;;4898381;29;19915;-54
2021/04/27 03:35:50;;;;;;;;;;;;;;;;;;4912176;29;19918;-53
2021/04/27 03:38:15;;;;;;;;;;;;;;;;;;4913143;29;19915;-55
2021/04/27 03:40:40;;;;;;;;;;;;;;;;;;4913448;29;19908;-56
2021/04/27 03:43:06;;;;;;;;;;;;;;;;;;4913152;29;20370;-56
2021/04/27 03:45:37;;;;;;;;;;;;;;;;;;4913212;29;19947;-55
2021/04/27 03:48:04;;;;;;;;;;;;;;;;;;4913146;29;19912;-56
2021/04/27 03:50:29;;;;;;;;;;;;;;;;;;4912862;29;19919;-56
2021/04/27 03:53:14;;;;;;;;;;;;;;;;;;4910225;29;20408;-56
2021/04/27 03:55:40;;;;;;;;;;;;;;;;;;4913821;29;20010;-55
2021/04/27 03:58:05;;;;;;;;;;;;;;;;;;4898672;29;19915;-56
2021/04/27 04:00:30;;;;;;;;;;;;;;;;;;4912691;29;19959;-56
2021/04/27 04:02:56;;;;;;;;;;;;;;;;;;4912958;29;19912;-55
2021/04/27 04:05:22;;;;;;;;;;;;;;;;;;4912569;29;19926;-63
2021/04/27 04:07:47;;;;;;;;;;;;;;;;;;4913454;29;19911;-57
2021/04/27 04:10:20;;;;;;;;;;;;;;;;;;4898150;29;19918;-56
2021/04/27 04:12:45;;;;;;;;;;;;;;;;;;4898249;29;19923;-56
2021/04/27 04:15:10;;;;;;;;;;;;;;;;;;4912627;29;20284;-57
2021/04/27 04:17:39;;;;;;;;;;;;;;;;;;4912493;29;19963;-54
2021/04/27 04:20:04;;;;;;;;;;;;;;;;;;4912841;29;20364;-56
2021/04/27 04:22:29;;;;;;;;;;;;;;;;;;4912300;29;19915;-56
2021/04/27 04:25:04;;;;;;;;;;;;;;;;;;4912677;29;19979;-56
2021/04/27 04:27:29;;;;;;;;;;;;;;;;;;4911846;29;20372;-55
2021/04/27 04:30:05;;;;;;;;;;;;;;;;;;4912514;29;19939;-55
2021/04/27 04:32:36;;;;;;;;;;;;;;;;;;4897963;29;19926;-56
2021/04/27 04:35:20;;;;;;;;;;;;;;;;;;4910113;29;19948;-56
2021/04/27 04:38:04;;;;;;;;;;;;;;;;;;4910311;29;20117;-57
2021/04/27 04:40:52;;;;;;;;;;;;;;;;;;4896434;29;19998;-56
2021/04/27 04:43:35;;;;;;;;;;;;;;;;;;4897629;29;20370;-57
2021/04/27 04:46:19;;;;;;;;;;;;;;;;;;4897405;29;19918;-57
2021/04/27 04:49:03;;;;;;;;;;;;;;;;;;4897518;29;19959;-54
2021/04/27 04:51:46;;;;;;;;;;;;;;;;;;4911820;29;19919;-53
2021/04/27 04:54:26;;;;;;;;;;;;;;;;;;4911840;29;19925;-55
2021/04/27 04:56:51;;;;;;;;;;;;;;;;;;4912072;29;19991;-54
2021/04/27 04:59:16;;;;;;;;;;;;;;;;;;4911800;29;19911;-56
2021/04/27 05:01:42;;;;;;;;;;;;;;;;;;4912122;29;19911;-55
2021/04/27 05:04:26;;;;;;;;;;;;;;;;;;4897115;29;20029;-56
2021/04/27 05:07:12;;;;;;;;;;;;;;;;;;4897701;29;19918;-56
2021/04/27 05:09:56;;;;;;;;;;;;;;;;;;4897713;29;19921;-57
2021/04/27 05:12:26;;;;;;;;;;;;;;;;;;4911764;29;19926;-54
2021/04/27 05:15:03;;;;;;;;;;;;;;;;;;4897579;29;19915;-57
2021/04/27 05:17:31;;;;;;;;;;;;;;;;;;4911791;29;20342;-58
2021/04/27 05:19:56;;;;;;;;;;;;;;;;;;4897264;29;19999;-56
2021/04/27 05:22:26;;;;;;;;;;;;;;;;;;4897216;29;19945;-57
2021/04/27 05:24:51;;;;;;;;;;;;;;;;;;4912038;29;19927;-56
2021/04/27 05:27:21;;;;;;;;;;;;;;;;;;4911650;29;19912;-56
2021/04/27 05:29:47;;;;;;;;;;;;;;;;;;4897480;29;20293;-56
2021/04/27 05:32:12;;;;;;;;;;;;;;;;;;4897381;29;20022;-57
2021/04/27 05:34:37;;;;;;;;;;;;;;;;;;4896940;29;20339;-55
2021/04/27 05:37:02;;;;;;;;;;;;;;;;;;4912141;29;19911;-54
2021/04/27 05:39:28;;;;;;;;;;;;;;;;;;4897170;29;20001;-54
2021/04/27 05:41:53;;;;;;;;;;;;;;;;;;4897011;29;19934;-56
2021/04/27 05:44:18;;;;;;;;;;;;;;;;;;4897373;29;19961;-56
2021/04/27 05:46:43;;;;;;;;;;;;;;;;;;4897042;29;19927;-56
2021/04/27 05:49:08;;;;;;;;;;;;;;;;;;4897190;29;20280;-56
2021/04/27 05:51:34;;;;;;;;;;;;;;;;;;4897093;29;20261;-55
2021/04/27 05:53:59;;;;;;;;;;;;;;;;;;4897362;29;19923;-56
2021/04/27 05:56:24;;;;;;;;;;;;;;;;;;4896735;29;19919;-57
2021/04/27 05:58:49;;;;;;;;;;;;;;;;;;4899383;29;20464;-54
2021/04/27 06:01:15;;;;;;;;;;;;;;;;;;4900605;29;20488;-57
2021/04/27 06:03:40;;;;;;;;;;;;;;;;;;4914361;29;19994;-58
2021/04/27 06:06:05;;;;;;;;;;;;;;;;;;4900624;29;19958;-56
2021/04/27 06:08:30;;;;;;;;;;;;;;;;;;4900175;29;19967;-55
2021/04/27 06:10:56;;;;;;;;;;;;;;;;;;4900437;29;19915;-56
2021/04/27 06:13:21;;;;;;;;;;;;;;;;;;4914816;29;20273;-55
2021/04/27 06:15:46;;;;;;;;;;;;;;;;;;4900127;29;19918;-55
2021/04/27 06:18:11;;;;;;;;;;;;;;;;;;4900327;29;19967;-57
2021/04/27 06:20:36;;;;;;;;;;;;;;;;;;4899845;29;19926;-55
2021/04/27 06:23:02;;;;;;;;;;;;;;;;;;4900175;29;20305;-56
2021/04/27 06:25:27;;;;;;;;;;;;;;;;;;4900003;29;19993;-56
2021/04/27 06:27:52;;;;;;;;;;;;;;;;;;4900299;29;20221;-57
2021/04/27 06:30:17;;;;;;;;;;;;;;;;;;4900032;29;20224;-57
2021/04/27 06:32:43;;;;;;;;;;;;;;;;;;4899583;29;19982;-55
2021/04/27 06:35:08;;;;;;;;;;;;;;;;;;4899776;29;19923;-56
2021/04/27 06:37:33;;;;;;;;;;;;;;;;;;4913923;29;19922;-55
2021/04/27 06:39:58;;;;;;;;;;;;;;;;;;4900009;29;19931;-56
2021/04/27 06:42:23;;;;;;;;;;;;;;;;;;4899583;29;19907;-56
2021/04/27 06:44:49;;;;;;;;;;;;;;;;;;4899425;29;19911;-57
2021/04/27 06:47:14;;;;;;;;;;;;;;;;;;4899571;29;19950;-57
2021/04/27 06:49:39;;;;;;;;;;;;;;;;;;4899302;29;20431;-56
2021/04/27 06:52:04;;;;;;;;;;;;;;;;;;4899634;29;19923;-57
2021/04/27 06:54:30;;;;;;;;;;;;;;;;;;4899224;29;20278;-57
2021/04/27 06:56:55;;;;;;;;;;;;;;;;;;4914187;29;20293;-55
2021/04/27 06:59:21;;;;;;;;;;;;;;;;;;4899309;29;19911;-55
2021/04/27 07:01:46;;;;;;;;;;;;;;;;;;4899091;29;20447;-56
2021/04/27 07:04:12;;;;;;;;;;;;;;;;;;4899439;29;20006;-56
2021/04/27 07:06:37;;;;;;;;;;;;;;;;;;4899149;29;20309;-57
2021/04/27 07:09:02;;;;;;;;;;;;;;;;;;4913695;29;19912;-55
2021/04/27 07:11:29;;;;;;;;;;;;;;;;;;4899402;29;19915;-57
2021/04/27 07:13:54;;;;;;;;;;;;;;;;;;4899245;29;20058;-56
2021/04/27 07:16:20;;;;;;;;;;;;;;;;;;4914258;29;20444;-57
2021/04/27 07:18:45;;;;;;;;;;;;;;;;;;4899009;29;19934;-55
2021/04/27 07:21:10;;;;;;;;;;;;;;;;;;4913887;29;20348;-57
2021/04/27 07:23:35;;;;;;;;;;;;;;;;;;4898720;29;19919;-55
2021/04/27 07:26:01;;;;;;;;;;;;;;;;;;4899199;29;19919;-57
2021/04/27 07:28:26;;;;;;;;;;;;;;;;;;4898928;29;20256;-55
2021/04/27 07:30:52;;;;;;;;;;;;;;;;;;4913254;29;20001;-55
2021/04/27 07:33:17;;;;;;;;;;;;;;;;;;4899219;29;19963;-57
2021/04/27 07:35:43;;;;;;;;;;;;;;;;;;4913226;29;19919;-57
2021/04/27 07:38:08;;;;;;;;;;;;;;;;;;4910518;29;19982;-56
2021/04/27 07:40:33;;;;;;;;;;;;;;;;;;4914992;29;20320;-58
2021/04/27 07:42:58;;;;;;;;;;;;;;;;;;4916568;29;19907;-55
2021/04/27 07:45:24;;;;;;;;;;;;;;;;;;4916288;29;20015;-56
2021/04/27 07:47:52;;;;;;;;;;;;;;;;;;4915314;29;19911;-56
2021/04/27 07:50:17;;;;;;;;;;;;;;;;;;4914716;29;19927;-55
2021/04/27 07:52:42;;;;;;;;;;;;;;;;;;4915577;29;20037;-56
2021/04/27 07:55:07;;;;;;;;;;;;;;;;;;4914617;29;20017;-55
2021/04/27 07:57:33;;;;;;;;;;;;;;;;;;4915658;29;19954;-57
2021/04/27 07:59:58;;;;;;;;;;;;;;;;;;4915466;29;19907;-57
2021/04/27 08:02:23;;;;;;;;;;;;;;;;;;4915722;29;20010;-56
2021/04/27 08:04:49;;;;;;;;;;;;;;;;;;4915175;29;19919;-58
2021/04/27 08:07:14;;;;;;;;;;;;;;;;;;4915362;29;19911;-56
2021/04/27 08:09:39;;;;;;;;;;;;;;;;;;4915985;29;19969;-57
2021/04/27 08:12:04;;;;;;;;;;;;;;;;;;4915085;29;20013;-56
2021/04/27 08:14:30;;;;;;;;;;;;;;;;;;4916251;29;20394;-55
2021/04/27 08:16:55;;;;;;;;;;;;;;;;;;4915718;29;19925;-56
2021/04/27 08:19:20;;;;;;;;;;;;;;;;;;4915829;29;20300;-57
2021/04/27 08:21:45;;;;;;;;;;;;;;;;;;4915136;29;20375;-57
2021/04/27 08:24:10;;;;;;;;;;;;;;;;;;4916891;29;19933;-57
2021/04/27 08:26:36;;;;;;;;;;;;;;;;;;4916662;29;19915;-58
2021/04/27 08:29:01;;;;;;;;;;;;;;;;;;4915379;29;19910;-57
2021/04/27 08:31:26;;;;;;;;;;;;;;;;;;4916545;29;19922;-56
2021/04/27 08:33:51;;;;;;;;;;;;;;;;;;4916604;29;19998;-56
2021/04/27 08:36:17;;;;;;;;;;;;;;;;;;4916544;29;19919;-56
2021/04/27 08:38:42;;;;;;;;;;;;;;;;;;4916511;29;19911;-59
2021/04/27 08:41:07;;;;;;;;;;;;;;;;;;4915277;29;20005;-57
2021/04/27 08:43:32;;;;;;;;;;;;;;;;;;4916555;29;19931;-57
2021/04/27 08:45:58;;;;;;;;;;;;;;;;;;4916271;29;20309;-55
2021/04/27 08:48:23;;;;;;;;;;;;;;;;;;4915235;29;19911;-55
2021/04/27 08:50:49;;;;;;;;;;;;;;;;;;4916497;29;20279;-56
2021/04/27 08:53:14;;;;;;;;;;;;;;;;;;4916305;29;20006;-57
2021/04/27 08:55:39;;;;;;;;;;;;;;;;;;4916467;29;20398;-57
2021/04/27 08:58:04;;;;;;;;;;;;;;;;;;4916399;29;20283;-56
2021/04/27 09:00:29;;;;;;;;;;;;;;;;;;4916270;29;20411;-57
2021/04/27 09:02:55;;;;;;;;;;;;;;;;;;4899321;29;20373;-57
2021/04/27 09:05:20;;;;;;;;;;;;;;;;;;4915046;29;19919;-56
2021/04/27 09:07:47;;;;;;;;;;;;;;;;;;4915970;29;20394;-55
2021/04/27 09:10:12;;;;;;;;;;;;;;;;;;4916277;29;19918;-56
2021/04/27 09:12:37;;;;;;;;;;;;;;;;;;4916292;29;20013;-56
2021/04/27 09:15:04;;;;;;;;;;;;;;;;;;4915994;29;19915;-56
2021/04/27 09:17:29;;;;;;;;;;;;;;;;;;4914714;29;20364;-55
2021/04/27 09:19:54;;;;;;;;;;;;;;;;;;4914928;29;19958;-55
2021/04/27 09:22:20;;;;;;;;;;;;;;;;;;4916286;29;19911;-56
2021/04/27 09:24:45;;;;;;;;;;;;;;;;;;4916297;29;20400;-58
2021/04/27 09:27:10;;;;;;;;;;;;;;;;;;4915287;29;19929;-56
2021/04/27 09:29:35;;;;;;;;;;;;;;;;;;4916257;29;19955;-57
2021/04/27 09:32:01;;;;;;;;;;;;;;;;;;4915477;29;20356;-56
2021/04/27 09:34:26;;;;;;;;;;;;;;;;;;4919985;29;19919;-56
2021/04/27 09:36:51;;;;;;;;;;;;;;;;;;4919621;29;19911;-57
2021/04/27 09:39:16;;;;;;;;;;;;;;;;;;4919814;29;20442;-57
2021/04/27 09:41:42;;;;;;;;;;;;;;;;;;4919797;29;19911;-56
2021/04/27 09:44:07;;;;;;;;;;;;;;;;;;4918480;29;19934;-55
2021/04/27 09:46:33;;;;;;;;;;;;;;;;;;4919839;29;20423;-57
2021/04/27 09:48:58;;;;;;;;;;;;;;;;;;4919678;29;19917;-56
2021/04/27 09:51:24;;;;;;;;;;;;;;;;;;4919571;29;20009;-58
2021/04/27 09:53:53;;;;;;;;;;;;;;;;;;4913114;29;19930;-59
2021/04/27 09:56:19;;;;;;;;;;;;;;;;;;4900564;29;20368;-58
2021/04/27 09:58:44;;;;;;;;;;;;;;;;;;4903383;29;19917;-58
2021/04/27 10:01:09;;;;;;;;;;;;;;;;;;4919545;29;20272;-58
2021/04/27 10:03:34;;;;;;;;;;;;;;;;;;4919122;29;19919;-59
2021/04/27 10:06:00;;;;;;;;;;;;;;;;;;4918720;29;19915;-59
2021/04/27 10:08:25;;;;;;;;;;;;;;;;;;4918839;29;20017;-59
2021/04/27 10:10:50;;;;;;;;;;;;;;;;;;4919212;29;19998;-58
2021/04/27 10:13:15;;;;;;;;;;;;;;;;;;4919528;29;19973;-58
2021/04/27 10:15:40;;;;;;;;;;;;;;;;;;4919139;29;19915;-58
2021/04/27 10:18:06;;;;;;;;;;;;;;;;;;4918938;29;20082;-58
2021/04/27 10:20:31;;;;;;;;;;;;;;;;;;4919350;29;19962;-58
2021/04/27 10:22:56;;;;;;;;;;;;;;;;;;4918370;29;20423;-57
2021/04/27 10:25:21;;;;;;;;;;;;;;;;;;4919084;29;19917;-56
2021/04/27 10:27:47;;;;;;;;;;;;;;;;;;4918946;29;19956;-55
2021/04/27 10:30:12;;;;;;;;;;;;;;;;;;4919217;29;19911;-57
2021/04/27 10:32:37;;;;;;;;;;;;;;;;;;4917708;29;19962;-57
2021/04/27 10:35:02;;;;;;;;;;;;;;;;;;4918782;29;19938;-57
2021/04/27 10:37:28;;;;;;;;;;;;;;;;;;4919107;29;19917;-57
2021/04/27 10:39:53;;;;;;;;;;;;;;;;;;4918338;29;19915;-59
2021/04/27 10:42:19;;;;;;;;;;;;;;;;;;4917635;29;19911;-57
2021/04/27 10:44:44;;;;;;;;;;;;;;;;;;4916667;29;20411;-59
2021/04/27 10:47:09;;;;;;;;;;;;;;;;;;4917071;29;19959;-58
2021/04/27 10:49:34;;;;;;;;;;;;;;;;;;4917206;29;19911;-59
2021/04/27 10:52:05;;;;;;;;;;;;;;;;;;4918365;29;19919;-57
2021/04/27 10:54:36;;;;;;;;;;;;;;;;;;4918492;29;19922;-58
2021/04/27 10:57:01;;;;;;;;;;;;;;;;;;4917825;29;19935;-59
2021/04/27 10:59:26;;;;;;;;;;;;;;;;;;4917277;29;19915;-59
2021/04/27 11:01:51;;;;;;;;;;;;;;;;;;4918188;29;19911;-58
2021/04/27 11:04:17;;;;;;;;;;;;;;;;;;4917066;29;19942;-58
2021/04/27 11:06:42;;;;;;;;;;;;;;;;;;4917987;29;20377;-57
2021/04/27 11:09:07;;;;;;;;;;;;;;;;;;4918047;29;19979;-58
2021/04/27 11:11:32;;;;;;;;;;;;;;;;;;4917955;29;20021;-58
2021/04/27 11:13:58;;;;;;;;;;;;;;;;;;4918088;29;19915;-59
2021/04/27 11:16:23;;;;;;;;;;;;;;;;;;4917993;29;19984;-59
2021/04/27 11:18:48;;;;;;;;;;;;;;;;;;4916665;29;19919;-59
2021/04/27 11:21:13;;;;;;;;;;;;;;;;;;4917564;29;19911;-58
2021/04/27 11:23:39;;;;;;;;;;;;;;;;;;4918077;29;19911;-58
2021/04/27 11:26:04;;;;;;;;;;;;;;;;;;4916458;29;19941;-59
2021/04/27 11:28:29;;;;;;;;;;;;;;;;;;4917804;29;20005;-58
2021/04/27 11:30:54;;;;;;;;;;;;;;;;;;4917938;29;20332;-59
2021/04/27 11:33:20;;;;;;;;;;;;;;;;;;4917603;29;19962;-58
2021/04/27 11:35:45;;;;;;;;;;;;;;;;;;4917680;29;19939;-58
2021/04/27 11:38:10;;;;;;;;;;;;;;;;;;4916326;29;19992;-58
2021/04/27 11:40:39;;;;;;;;;;;;;;;;;;4917639;29;20376;-58
2021/04/27 11:43:05;;;;;;;;;;;;;;;;;;4917532;29;19985;-59
2021/04/27 11:45:31;;;;;;;;;;;;;;;;;;4917414;29;19911;-59
2021/04/27 11:47:56;;;;;;;;;;;;;;;;;;4917603;29;19915;-57
2021/04/27 11:50:21;;;;;;;;;;;;;;;;;;4917700;29;19911;-59
2021/04/27 11:52:48;;;;;;;;;;;;;;;;;;4917287;29;19962;-59
2021/04/27 11:55:14;;;;;;;;;;;;;;;;;;4916272;29;20368;-58
2021/04/27 11:57:39;;;;;;;;;;;;;;;;;;4915897;29;19918;-57
2021/04/27 12:00:04;;;;;;;;;;;;;;;;;;4915443;29;19911;-58
2021/04/27 12:02:30;;;;;;;;;;;;;;;;;;4917378;29;19911;-58
2021/04/27 12:04:55;;;;;;;;;;;;;;;;;;4917610;29;19919;-58
2021/04/27 12:07:20;;;;;;;;;;;;;;;;;;4916874;29;19911;-58
2021/04/27 12:09:46;;;;;;;;;;;;;;;;;;4916401;29;19965;-58
2021/04/27 12:12:11;;;;;;;;;;;;;;;;;;4916709;29;19963;-58
2021/04/27 12:14:36;;;;;;;;;;;;;;;;;;4915741;29;19927;-58
2021/04/27 12:17:01;;;;;;;;;;;;;;;;;;4916917;29;19911;-58
2021/04/27 12:19:27;;;;;;;;;;;;;;;;;;4917186;29;19915;-59
2021/04/27 12:21:52;;;;;;;;;;;;;;;;;;4917201;29;20372;-59
2021/04/27 12:24:17;;;;;;;;;;;;;;;;;;4916627;29;20343;-58
2021/04/27 12:26:43;;;;;;;;;;;;;;;;;;4916469;29;19990;-59
2021/04/27 12:29:09;;;;;;;;;;;;;;;;;;4914999;29;19966;-60
2021/04/27 12:31:35;;;;;;;;;;;;;;;;;;4916593;29;20351;-58
2021/04/27 12:34:01;;;;;;;;;;;;;;;;;;4916807;29;19915;-57
2021/04/27 12:36:26;;;;;;;;;;;;;;;;;;4915436;29;20379;-59
2021/04/27 12:38:51;;;;;;;;;;;;;;;;;;4916781;29;19911;-59
2021/04/27 12:41:16;;;;;;;;;;;;;;;;;;4916196;29;19954;-58
2021/04/27 12:43:41;;;;;;;;;;;;;;;;;;4915844;29;19970;-58
2021/04/27 12:46:07;;;;;;;;;;;;;;;;;;4916145;29;19918;-58
2021/04/27 12:48:32;;;;;;;;;;;;;;;;;;4916590;29;19919;-59
2021/04/27 12:50:58;;;;;;;;;;;;;;;;;;4916661;29;19911;-58
2021/04/27 12:53:23;;;;;;;;;;;;;;;;;;4916239;29;20258;-58
2021/04/27 12:55:48;;;;;;;;;;;;;;;;;;4916184;29;20332;-58
2021/04/27 12:58:13;;;;;;;;;;;;;;;;;;4915972;29;19918;-58
2021/04/27 13:00:38;;;;;;;;;;;;;;;;;;4916258;29;19911;-58
2021/04/27 13:03:04;;;;;;;;;;;;;;;;;;4915913;29;19958;-58
2021/04/27 13:05:29;;;;;;;;;;;;;;;;;;4916341;29;19919;-58
2021/04/27 13:07:54;;;;;;;;;;;;;;;;;;4919153;29;19911;-58
2021/04/27 13:10:19;;;;;;;;;;;;;;;;;;4920146;29;19907;-58
2021/04/27 13:12:45;;;;;;;;;;;;;;;;;;4920164;29;19911;-57
2021/04/27 13:15:10;;;;;;;;;;;;;;;;;;4918623;29;19917;-59
2021/04/27 13:17:41;;;;;;;;;;;;;;;;;;4918815;29;20283;-58
2021/04/27 13:20:06;;;;;;;;;;;;;;;;;;4919635;29;19911;-58
2021/04/27 13:22:31;;;;;;;;;;;;;;;;;;4918632;29;20251;-58
2021/04/27 13:24:56;;;;;;;;;;;;;;;;;;4920069;29;19941;-59
2021/04/27 13:27:22;;;;;;;;;;;;;;;;;;4919480;29;19915;-59
2021/04/27 13:29:47;;;;;;;;;;;;;;;;;;4919811;29;20042;-59
2021/04/27 13:32:12;;;;;;;;;;;;;;;;;;4920013;29;19922;-59
2021/04/27 13:34:37;;;;;;;;;;;;;;;;;;4919545;29;20363;-58
2021/04/27 13:37:03;;;;;;;;;;;;;;;;;;4919364;29;20427;-58
2021/04/27 13:39:28;;;;;;;;;;;;;;;;;;4919321;29;20056;-59
2021/04/27 13:41:53;;;;;;;;;;;;;;;;;;4918155;29;19958;-59
2021/04/27 13:44:18;;;;;;;;;;;;;;;;;;4919663;29;19918;-58
2021/04/27 13:46:43;;;;;;;;;;;;;;;;;;4918306;29;19911;-58
2021/04/27 13:49:09;;;;;;;;;;;;;;;;;;4918256;29;19911;-59
2021/04/27 13:51:34;;;;;;;;;;;;;;;;;;4902469;29;19957;-57
2021/04/27 13:53:59;;;;;;;;;;;;;;;;;;4902037;29;19963;-59
2021/04/27 13:56:24;;;;;;;;;;;;;;;;;;4919120;29;19954;-58
2021/04/27 13:58:50;;;;;;;;;;;;;;;;;;4919192;29;20002;-57
2021/04/27 14:01:15;;;;;;;;;;;;;;;;;;4919165;29;19911;-58
2021/04/27 14:03:40;;;;;;;;;;;;;;;;;;4919195;29;19915;-57
2021/04/27 14:06:05;;;;;;;;;;;;;;;;;;4917950;29;19941;-58
2021/04/27 14:08:30;;;;;;;;;;;;;;;;;;4918845;29;19910;-58
2021/04/27 14:10:56;;;;;;;;;;;;;;;;;;4919237;29;19975;-58
2021/04/27 14:13:21;;;;;;;;;;;;;;;;;;4917620;29;19915;-58
2021/04/27 14:15:48;;;;;;;;;;;;;;;;;;4919107;29;19915;-58
2021/04/27 14:18:13;;;;;;;;;;;;;;;;;;4918172;29;19939;-58
2021/04/27 14:20:39;;;;;;;;;;;;;;;;;;4919385;29;19962;-58
2021/04/27 14:23:04;;;;;;;;;;;;;;;;;;4918893;29;19915;-57
2021/04/27 14:25:29;;;;;;;;;;;;;;;;;;4918763;29;20331;-58
2021/04/27 14:27:54;;;;;;;;;;;;;;;;;;4918664;29;19918;-58
2021/04/27 14:30:20;;;;;;;;;;;;;;;;;;4918344;29;20371;-58
2021/04/27 14:32:45;;;;;;;;;;;;;;;;;;4917479;29;19907;-57
2021/04/27 14:35:12;;;;;;;;;;;;;;;;;;4918961;29;19911;-58
2021/04/27 14:37:37;;;;;;;;;;;;;;;;;;4918350;29;19986;-57
2021/04/27 14:40:02;;;;;;;;;;;;;;;;;;4918545;29;20431;-59
2021/04/27 14:42:28;;;;;;;;;;;;;;;;;;4918279;29;19919;-57
2021/04/27 14:44:53;;;;;;;;;;;;;;;;;;4918651;29;19911;-58
2021/04/27 14:47:18;;;;;;;;;;;;;;;;;;4918135;29;20001;-58
2021/04/27 14:49:43;;;;;;;;;;;;;;;;;;4918326;29;19954;-59
2021/04/27 14:52:10;;;;;;;;;;;;;;;;;;4918396;29;20237;-57
2021/04/27 14:54:35;;;;;;;;;;;;;;;;;;4918309;29;19923;-59
2021/04/27 14:57:00;;;;;;;;;;;;;;;;;;4918418;29;19920;-59
2021/04/27 14:59:25;;;;;;;;;;;;;;;;;;4918154;29;19911;-59
2021/04/27 15:01:51;;;;;;;;;;;;;;;;;;4918044;29;20293;-57
2021/04/27 15:04:16;;;;;;;;;;;;;;;;;;4917893;29;19915;-56
2021/04/27 15:06:41;;;;;;;;;;;;;;;;;;4918077;29;19911;-57
2021/04/27 15:09:06;;;;;;;;;;;;;;;;;;4916927;29;20359;-58
2021/04/27 15:11:32;;;;;;;;;;;;;;;;;;4917898;29;20002;-58
2021/04/27 15:13:58;;;;;;;;;;;;;;;;;;4918272;29;19971;-58
2021/04/27 15:16:24;;;;;;;;;;;;;;;;;;4917971;29;20359;-58
2021/04/27 15:18:49;;;;;;;;;;;;;;;;;;4918106;29;19911;-57
2021/04/27 15:21:14;;;;;;;;;;;;;;;;;;4918179;29;19978;-57
2021/04/27 15:23:39;;;;;;;;;;;;;;;;;;4916522;29;20347;-58
2021/04/27 15:26:04;;;;;;;;;;;;;;;;;;4900783;29;20009;-58
2021/04/27 15:28:30;;;;;;;;;;;;;;;;;;4917658;29;20081;-56
2021/04/27 15:30:55;;;;;;;;;;;;;;;;;;4917537;29;19915;-57
2021/04/27 15:33:20;;;;;;;;;;;;;;;;;;4917197;29;19921;-57
2021/04/27 15:35:45;;;;;;;;;;;;;;;;;;4917761;29;20338;-58
2021/04/27 15:38:11;;;;;;;;;;;;;;;;;;4917986;29;20439;-56
2021/04/27 15:40:36;;;;;;;;;;;;;;;;;;4917170;29;19915;-57
2021/04/27 15:43:01;;;;;;;;;;;;;;;;;;4917370;29;20011;-57
2021/04/27 15:45:26;;;;;;;;;;;;;;;;;;4917007;29;20121;-57
2021/04/27 15:47:52;;;;;;;;;;;;;;;;;;4917515;29;19958;-58
2021/04/27 15:50:17;;;;;;;;;;;;;;;;;;4917417;29;19965;-57
2021/04/27 15:52:42;;;;;;;;;;;;;;;;;;4916892;29;20379;-56
2021/04/27 15:55:07;;;;;;;;;;;;;;;;;;4917104;29;19918;-57
2021/04/27 15:57:33;;;;;;;;;;;;;;;;;;4916924;29;19911;-58
2021/04/27 15:59:58;;;;;;;;;;;;;;;;;;4917014;29;20335;-57
2021/04/27 16:02:23;;;;;;;;;;;;;;;;;;4916718;29;19919;-56
2021/04/27 16:04:49;;;;;;;;;;;;;;;;;;4915672;29;20460;-55
2021/04/27 16:07:14;;;;;;;;;;;;;;;;;;4915922;29;19914;-56
2021/04/27 16:09:39;;;;;;;;;;;;;;;;;;4916677;29;20031;-58
2021/04/27 16:12:04;;;;;;;;;;;;;;;;;;4917199;29;19922;-57
2021/04/27 16:14:31;;;;;;;;;;;;;;;;;;4916718;29;19919;-56
2021/04/27 16:16:56;;;;;;;;;;;;;;;;;;4916804;29;20359;-57
2021/04/27 16:19:21;;;;;;;;;;;;;;;;;;4915535;29;19918;-56
2021/04/27 16:21:47;;;;;;;;;;;;;;;;;;4916602;29;20376;-56
2021/04/27 16:24:12;;;;;;;;;;;;;;;;;;4916726;29;19911;-56
2021/04/27 16:26:37;;;;;;;;;;;;;;;;;;4916667;29;19911;-57
2021/04/27 16:29:02;;;;;;;;;;;;;;;;;;4916745;29;19917;-55
2021/04/27 16:31:28;;;;;;;;;;;;;;;;;;4916561;29;19953;-56
2021/04/27 16:33:56;;;;;;;;;;;;;;;;;;4917094;29;19915;-57
2021/04/27 16:36:21;;;;;;;;;;;;;;;;;;4916827;29;19961;-57
2021/04/27 16:38:46;;;;;;;;;;;;;;;;;;4916438;29;19915;-56
2021/04/27 16:41:11;;;;;;;;;;;;;;;;;;4916111;29;19907;-57